Time;durP1;ratioP1;P1;durP2;ratioP2;P2;SDS_P1;SDS_P2;PMS_P1;PMS_P2;Temp;Humidity;BMP_temperature;BMP_pressure;BME280_temperature;BME280_humidity;BME280_pressure;Samples;Min_cycle;Max_cycle;Signal;HPM_P1;HPM_P2
2021/06/19 00:00:35;;;;;;;3.90;3.47;;;;;;;19.63;73.81;101097.34;4837368;29;102592;-59
2021/06/19 00:03:07;;;;;;;4.75;3.60;;;;;;;19.64;73.86;101098.16;4833161;29;103916;-59
2021/06/19 00:05:34;;;;;;;4.00;3.53;;;;;;;19.64;73.75;101098.16;4835952;29;102547;-59
2021/06/19 00:08:08;;;;;;;4.27;3.70;;;;;;;19.63;73.62;101097.34;4840451;29;102444;-59
2021/06/19 00:10:35;;;;;;;6.70;4.07;;;;;;;19.60;74.04;101091.63;4859282;28;102352;-58
2021/06/19 00:13:05;;;;;;;4.80;4.00;;;;;;;19.60;74.00;101097.16;4854982;28;103944;-59
2021/06/19 00:15:33;;;;;;;4.80;3.90;;;;;;;19.62;74.10;101092.13;4844040;29;102395;-61
2021/06/19 00:18:00;;;;;;;4.22;3.38;;;;;;;19.60;74.19;101086.91;4836366;29;104824;-59
2021/06/19 00:20:35;;;;;;;4.50;4.07;;;;;;;19.60;74.20;101092.44;4848980;28;102439;-59
2021/06/19 00:23:02;;;;;;;4.40;3.83;;;;;;;19.59;73.83;101096.34;4843425;29;103682;-59
2021/06/19 00:25:30;;;;;;;4.30;3.90;;;;;;;19.61;73.82;101096.00;4856648;28;102190;-59
2021/06/19 00:27:57;;;;;;;7.63;3.80;;;;;;;19.60;73.87;101097.97;4840640;29;102104;-59
2021/06/19 00:30:24;;;;;;;4.32;3.80;;;;;;;19.59;74.17;101095.53;4836917;29;102486;-59
2021/06/19 00:32:54;;;;;;;4.97;4.00;;;;;;;19.61;74.28;101098.78;4836591;29;104010;-59
2021/06/19 00:35:21;;;;;;;4.07;3.67;;;;;;;19.60;74.29;101097.16;4854589;28;102458;-59
2021/06/19 00:37:53;;;;;;;4.20;3.80;;;;;;;19.60;74.36;101105.44;4843807;29;102741;-59
2021/06/19 00:40:21;;;;;;;4.32;3.88;;;;;;;19.60;74.19;101102.69;4853292;29;102749;-59
2021/06/19 00:42:57;;;;;;;4.43;4.03;;;;;;;19.59;74.20;101099.09;4839940;29;104026;-59
2021/06/19 00:45:27;;;;;;;5.35;4.00;;;;;;;19.60;74.50;101103.50;4845027;29;102528;-59
2021/06/19 00:48:01;;;;;;;5.15;3.67;;;;;;;19.58;74.48;101105.78;4842478;29;102656;-60
2021/06/19 00:50:27;;;;;;;4.53;4.13;;;;;;;19.58;74.59;101105.78;4834276;29;102516;-59
2021/06/19 00:53:02;;;;;;;6.43;4.53;;;;;;;19.57;74.61;101103.31;4842041;29;104048;-59
2021/06/19 00:55:29;;;;;;;4.15;3.70;;;;;;;19.56;74.62;101105.28;4840828;29;102461;-59
2021/06/19 00:57:56;;;;;;;5.65;4.28;;;;;;;19.58;74.62;101104.94;4842859;29;102101;-59
2021/06/19 01:00:24;;;;;;;4.60;4.03;;;;;;;19.57;74.47;101109.66;4835918;29;102870;-59
2021/06/19 01:02:57;;;;;;;4.90;4.00;;;;;;;19.59;74.48;101112.09;4834782;29;104403;-59
2021/06/19 01:05:27;;;;;;;5.07;4.10;;;;;;;19.58;74.38;101118.75;4835457;29;103091;-60
2021/06/19 01:07:56;;;;;;;4.30;3.90;;;;;;;19.60;74.41;101113.72;4839664;29;102525;-60
2021/06/19 01:10:28;;;;;;;5.90;4.82;;;;;;;19.56;74.47;101108.03;4837819;29;101886;-60
2021/06/19 01:13:00;;;;;;;4.75;4.25;;;;;;;19.57;74.14;101114.34;4839205;29;103903;-60
2021/06/19 01:15:27;;;;;;;4.32;3.92;;;;;;;19.59;74.21;101117.63;4847587;29;103271;-59
2021/06/19 01:18:04;;;;;;;5.43;4.93;;;;;;;19.58;74.39;101116.81;4844734;28;102668;-60
2021/06/19 01:20:34;;;;;;;4.32;3.92;;;;;;;19.57;74.23;101120.69;4840735;29;101986;-59
2021/06/19 01:23:01;;;;;;;4.53;4.13;;;;;;;19.58;74.60;101115.97;4830635;29;105115;-60
2021/06/19 01:25:36;;;;;;;4.50;4.10;;;;;;;19.57;74.15;101119.88;4841576;29;102395;-60
2021/06/19 01:28:11;;;;;;;4.82;4.43;;;;;;;19.56;74.60;101113.56;4842737;29;102512;-59
2021/06/19 01:30:39;;;;;;;6.40;4.60;;;;;;;19.56;74.26;101127.34;4842538;29;102945;-59
2021/06/19 01:33:08;;;;;;;4.63;4.22;;;;;;;19.57;74.56;101131.72;4838775;29;102411;-60
2021/06/19 01:35:38;;;;;;;4.93;4.43;;;;;;;19.56;74.34;101134.81;4843889;29;102405;-60
2021/06/19 01:38:06;;;;;;;5.43;4.80;;;;;;;19.56;74.65;101121.03;4836505;29;103361;-59
2021/06/19 01:40:38;;;;;;;4.88;4.47;;;;;;;19.54;74.62;101126.84;4843833;29;102640;-60
2021/06/19 01:43:05;;;;;;;5.18;4.78;;;;;;;19.56;74.43;101126.53;4860512;28;104021;-60
2021/06/19 01:45:36;;;;;;;5.03;4.57;;;;;;;19.54;74.50;101131.56;4844873;29;102689;-59
2021/06/19 01:48:05;;;;;;;4.82;4.43;;;;;;;19.55;74.50;101124.94;4838810;29;101855;-59
2021/06/19 01:50:36;;;;;;;4.88;4.40;;;;;;;19.54;74.56;101121.34;4838361;29;102182;-59
2021/06/19 01:53:05;;;;;;;5.20;4.70;;;;;;;19.54;74.64;101121.34;4841685;29;104067;-60
2021/06/19 01:55:33;;;;;;;4.97;4.32;;;;;;;19.55;74.52;101122.16;4835290;29;103104;-60
2021/06/19 01:58:06;;;;;;;5.13;4.63;;;;;;;19.53;74.36;101125.22;4844080;29;102172;-63
2021/06/19 02:00:37;;;;;;;5.25;4.75;;;;;;;19.54;74.61;101115.81;4846852;28;102122;-59
2021/06/19 02:03:07;;;;;;;5.78;4.75;;;;;;;19.55;74.44;101128.50;4836345;29;103933;-60
2021/06/19 02:05:41;;;;;;;5.50;5.00;;;;;;;19.55;74.56;101116.66;4840457;29;101968;-59
2021/06/19 02:08:11;;;;;;;5.18;4.75;;;;;;;19.55;74.46;101122.16;4837674;29;102394;-59
2021/06/19 02:10:40;;;;;;;4.88;4.47;;;;;;;19.54;74.53;101120.53;4844322;29;102240;-60
2021/06/19 02:13:13;;;;;;;4.65;4.28;;;;;;;19.56;74.63;101123.78;4841017;29;104581;-60
2021/06/19 02:15:44;;;;;;;5.20;4.80;;;;;;;19.52;74.95;101123.63;4841965;29;102481;-60
2021/06/19 02:18:17;;;;;;;5.75;5.22;;;;;;;19.53;74.73;101129.94;4838859;29;102211;-59
2021/06/19 02:20:46;;;;;;;5.30;4.80;;;;;;;19.53;74.77;101129.94;4844614;29;102803;-59
2021/06/19 02:23:13;;;;;;;5.05;4.60;;;;;;;19.52;74.86;101126.38;4839965;29;103686;-59
2021/06/19 02:25:40;;;;;;;5.03;4.53;;;;;;;19.54;74.25;101128.81;4840970;29;102369;-59
2021/06/19 02:28:11;;;;;;;5.57;5.07;;;;;;;19.55;74.63;101130.44;4837767;29;102798;-60
2021/06/19 02:30:43;;;;;;;5.25;4.85;;;;;;;19.55;74.80;101133.22;4842662;29;102774;-60
2021/06/19 02:33:10;;;;;;;5.80;5.30;;;;;;;19.53;74.45;101133.53;4837390;29;102126;-59
2021/06/19 02:35:39;;;;;;;5.78;5.18;;;;;;;19.52;74.93;101128.31;4840398;29;102127;-60
2021/06/19 02:38:07;;;;;;;6.03;5.22;;;;;;;19.51;74.84;101133.03;4840203;29;103076;-59
2021/06/19 02:40:35;;;;;;;5.97;5.38;;;;;;;19.52;74.71;101144.91;4840221;29;102689;-60
2021/06/19 02:43:03;;;;;;;5.55;5.07;;;;;;;19.52;75.06;101134.66;4844600;29;104335;-59
2021/06/19 02:45:32;;;;;;;6.20;5.50;;;;;;;19.53;74.91;101139.03;4839375;29;102550;-60
2021/06/19 02:48:00;;;;;;;6.72;5.35;;;;;;;19.52;74.97;101133.84;4853022;29;102551;-61
2021/06/19 02:50:36;;;;;;;6.07;4.90;;;;;;;19.53;74.87;101132.72;4841897;29;102402;-59
2021/06/19 02:53:03;;;;;;;5.60;5.10;;;;;;;19.52;74.90;101139.38;4838461;29;103729;-60
2021/06/19 02:55:32;;;;;;;;;;;;;;;19.51;75.33;101148.75;4840640;29;102437;-60
2021/06/19 02:58:02;;;;;;;5.80;5.20;;;;;;;19.51;75.27;101143.25;4834918;29;102482;-59
2021/06/19 03:00:31;;;;;;;8.18;5.35;;;;;;;19.49;75.23;101146.34;4841077;29;102615;-59
2021/06/19 03:03:00;;;;;;;8.05;5.35;;;;;;;19.50;75.01;101142.44;4839670;29;103882;-59
2021/06/19 03:05:30;;;;;;;5.63;5.22;;;;;;;19.51;75.33;101144.09;4840772;29;102585;-59
2021/06/19 03:07:58;;;;;;;5.43;4.95;;;;;;;19.52;75.07;101147.66;4843535;29;102575;-59
2021/06/19 03:10:26;;;;;;;9.60;5.10;;;;;;;19.51;75.25;101148.75;4859110;29;102761;-59
2021/06/19 03:12:56;;;;;;;49.67;7.68;;;;;;;19.52;75.26;101150.41;4840116;29;104150;-59
2021/06/19 03:15:23;;;;;;;6.38;5.03;;;;;;;19.51;75.14;101149.59;4843346;29;103044;-61
2021/06/19 03:17:55;;;;;;;5.32;4.82;;;;;;;19.51;75.24;101159.81;4844022;29;102453;-59
2021/06/19 03:20:23;;;;;;;5.63;5.18;;;;;;;19.53;74.98;101163.06;4851966;28;102802;-59
2021/06/19 03:22:54;;;;;;;5.68;5.18;;;;;;;19.52;75.24;101164.22;4851190;28;104014;-59
2021/06/19 03:25:24;;;;;;;5.40;4.95;;;;;;;19.52;75.18;101170.53;4843871;29;102453;-59
2021/06/19 03:27:53;;;;;;;5.22;4.82;;;;;;;19.53;75.11;101176.88;4839847;29;102179;-59
2021/06/19 03:30:24;;;;;;;5.07;4.68;;;;;;;19.53;75.65;101177.69;4844304;29;103403;-59
2021/06/19 03:32:52;;;;;;;6.05;5.45;;;;;;;19.52;75.36;101172.50;4843566;29;103808;-60
2021/06/19 03:35:22;;;;;;;5.82;5.22;;;;;;;19.52;74.85;101176.06;4843788;29;102388;-59
2021/06/19 03:37:51;;;;;;;5.13;4.70;;;;;;;19.50;75.27;101172.81;4842497;29;102383;-60
2021/06/19 03:40:18;;;;;;;6.25;5.65;;;;;;;19.50;75.12;101186.59;4856199;29;102514;-59
2021/06/19 03:42:46;;;;;;;5.80;5.20;;;;;;;19.52;75.09;101183.53;4840910;29;104172;-60
2021/06/19 03:45:13;;;;;;;5.57;5.18;;;;;;;19.52;74.96;101189.88;4852596;28;103760;-60
2021/06/19 03:47:42;;;;;;;5.72;5.22;;;;;;;19.52;75.25;101189.06;4838197;29;102295;-60
2021/06/19 03:50:13;;;;;;;6.15;5.55;;;;;;;19.50;75.21;101183.84;4841742;29;102333;-59
2021/06/19 03:52:40;;;;;;;6.55;5.85;;;;;;;19.51;75.06;101187.41;4840217;29;103943;-59
2021/06/19 03:55:11;;;;;;;5.90;5.38;;;;;;;19.50;74.95;101186.59;4847946;29;102382;-61
2021/06/19 03:57:39;;;;;;;6.03;5.50;;;;;;;19.51;75.14;101192.94;4843802;29;102347;-60
2021/06/19 04:00:11;;;;;;;5.70;5.22;;;;;;;19.52;74.77;101194.59;4847223;28;102214;-59
2021/06/19 04:02:38;;;;;;;7.50;5.72;;;;;;;19.52;75.17;101205.63;4841959;29;104303;-59
2021/06/19 04:05:06;;;;;;;6.03;5.45;;;;;;;19.51;74.96;101203.97;4843187;29;102576;-59
2021/06/19 04:07:37;;;;;;;6.05;5.45;;;;;;;19.53;75.07;101201.72;4838523;29;102006;-59
2021/06/19 04:10:07;;;;;;;5.63;5.13;;;;;;;19.52;75.15;101200.09;4839170;29;102197;-59
2021/06/19 04:12:34;;;;;;;6.25;5.65;;;;;;;19.52;75.15;101202.88;4842100;29;103770;-59
2021/06/19 04:15:00;;;;;;;6.43;5.72;;;;;;;19.52;75.00;101208.38;4837612;29;102384;-59
2021/06/19 04:17:30;;;;;;;5.78;5.28;;;;;;;19.51;74.89;101210.34;4838122;29;102522;-60
2021/06/19 04:19:58;;;;;;;6.47;5.88;;;;;;;19.50;75.01;101214.22;4845760;29;102930;-60
2021/06/19 04:22:28;;;;;;;6.53;5.72;;;;;;;19.52;74.94;101219.44;4848656;29;103022;-60
2021/06/19 04:24:56;;;;;;;5.90;5.50;;;;;;;19.54;75.05;101214.38;4844544;29;102356;-59
2021/06/19 04:27:23;;;;;;;5.95;5.45;;;;;;;19.53;74.84;101226.56;4847289;29;102553;-59
2021/06/19 04:29:49;;;;;;;5.70;5.20;;;;;;;19.54;74.92;101222.66;4837633;29;102656;-59
2021/06/19 04:32:19;;;;;;;6.03;5.53;;;;;;;19.55;75.02;101232.59;4841842;29;103961;-59
2021/06/19 04:34:47;;;;;;;6.63;5.85;;;;;;;19.56;74.62;101223.16;4841351;29;102701;-60
2021/06/19 04:37:18;;;;;;;5.85;5.35;;;;;;;19.56;74.90;101223.16;4840611;29;102232;-59
2021/06/19 04:39:53;;;;;;;5.97;5.45;;;;;;;19.56;74.54;101218.47;4845474;29;102438;-58
2021/06/19 04:42:24;;;;;;;6.13;5.55;;;;;;;19.56;75.03;101217.66;4828750;29;102611;-59
2021/06/19 04:47:22;;;;;;;5.97;5.47;;;;;;;19.56;74.85;101225.94;4841482;29;102952;-58
2021/06/19 04:49:53;;;;;;;6.60;6.00;;;;;;;19.57;74.79;101213.75;4842116;29;102840;-59
2021/06/19 04:52:24;;;;;;;6.30;5.80;;;;;;;19.56;74.39;101212.94;4840422;29;103838;-58
2021/06/19 04:54:53;;;;;;;6.32;5.82;;;;;;;19.56;74.55;101217.66;4850523;29;102086;-59
2021/06/19 04:57:19;;;;;;;;;;;;;;;19.57;74.45;101224.78;4834046;29;102351;-59
2021/06/19 04:59:48;;;;;;;6.43;5.82;;;;;;;19.57;74.61;101225.59;4851943;29;101978;-61
2021/06/19 05:02:15;;;;;;;6.15;5.65;;;;;;;19.57;74.41;101219.28;4842193;29;103797;-59
2021/06/19 05:04:42;;;;;;;6.00;5.50;;;;;;;19.58;74.48;101226.41;4857442;28;102302;-59
2021/06/19 05:07:13;;;;;;;6.30;5.70;;;;;;;19.58;74.26;101221.72;4840732;29;102521;-59
2021/06/19 05:09:43;;;;;;;5.85;5.35;;;;;;;19.59;74.60;101222.53;4840044;29;102639;-60
2021/06/19 05:12:11;;;;;;;6.15;5.65;;;;;;;19.59;74.21;101217.81;4841692;29;104372;-59
2021/06/19 05:14:40;;;;;;;6.18;5.57;;;;;;;19.60;74.35;101219.44;4838283;29;102469;-59
2021/06/19 05:17:10;;;;;;;5.97;5.47;;;;;;;19.62;74.37;101232.94;4838848;29;102552;-59
2021/06/19 05:19:38;;;;;;;5.90;5.50;;;;;;;19.62;74.09;101221.91;4841999;29;102867;-60
2021/06/19 05:22:04;;;;;;;5.55;5.07;;;;;;;19.64;74.28;101225.16;4837263;29;104115;-58
2021/06/19 05:24:34;;;;;;;6.03;5.53;;;;;;;19.63;74.30;101238.16;4839428;29;102445;-59
2021/06/19 05:27:02;;;;;;;7.47;6.78;;;;;;;19.67;74.58;101230.06;4841374;29;102257;-59
2021/06/19 05:29:30;;;;;;;6.60;6.05;;;;;;;19.70;74.56;101229.41;4842903;29;102200;-61
2021/06/19 05:31:56;;;;;;;7.28;6.57;;;;;;;19.70;74.60;101232.19;4841745;29;104185;-59
2021/06/19 05:34:30;;;;;;;5.63;5.18;;;;;;;19.71;74.17;101236.56;4842308;29;103799;-59
2021/06/19 05:36:58;;;;;;;8.80;6.53;;;;;;;19.69;74.80;101233.31;4841382;29;102988;-58
2021/06/19 05:39:24;;;;;;;10.60;7.78;;;;;;;19.67;76.31;101241.09;4853152;28;102317;-58
2021/06/19 05:41:56;;;;;;;;;;;;;;;19.70;75.95;101234.13;4839286;29;104066;-59
2021/06/19 05:44:23;;;;;;;9.77;7.82;;;;;;;19.70;75.89;101236.91;4839953;29;102204;-58
2021/06/19 05:46:50;;;;;;;9.07;8.18;;;;;;;19.72;75.76;101243.69;4841208;29;102739;-58
2021/06/19 05:49:24;;;;;;;18.75;9.10;;;;;;;19.70;77.16;101240.47;4840902;29;102592;-58
2021/06/19 05:51:54;;;;;;;15.35;8.85;;;;;;;19.69;76.69;101233.31;4833283;29;104241;-58
2021/06/19 05:54:20;;;;;;;9.20;7.57;;;;;;;19.69;76.90;101244.38;4840697;29;102691;-58
2021/06/19 05:56:47;;;;;;;11.48;7.82;;;;;;;19.70;76.90;101246.00;4855631;28;102505;-59
2021/06/19 05:59:14;;;;;;;10.77;8.45;;;;;;;19.72;76.76;101249.22;4842709;29;102797;-59
2021/06/19 06:01:41;;;;;;;9.85;8.45;;;;;;;19.74;76.58;101246.97;4831834;29;103764;-59
2021/06/19 06:04:11;;;;;;;10.18;8.25;;;;;;;19.79;76.88;101241.28;4835950;29;102452;-60
2021/06/19 06:06:39;;;;;;;8.77;7.53;;;;;;;19.80;76.16;101240.19;4841559;29;102844;-59
2021/06/19 06:09:08;;;;;;;8.70;7.80;;;;;;;19.78;76.29;101245.19;4841196;29;102258;-60
2021/06/19 06:11:47;;;;;;;7.88;7.18;;;;;;;19.82;75.66;101248.13;4845328;29;104056;-62
2021/06/19 06:14:17;;;;;;;17.17;8.23;;;;;;;19.87;76.13;101231.38;4856145;28;102223;-59
2021/06/19 06:16:51;;;;;;;8.35;7.50;;;;;;;19.91;75.76;101246.22;4842861;29;102645;-60
2021/06/19 06:19:19;;;;;;;9.35;8.15;;;;;;;19.99;75.31;101245.41;4846376;29;102660;-60
2021/06/19 06:21:53;;;;;;;10.20;7.68;;;;;;;20.11;75.58;101240.06;4842611;29;104014;-60
2021/06/19 06:24:26;;;;;;;8.65;7.22;;;;;;;20.16;75.58;101244.63;4839161;29;103519;-59
2021/06/19 06:26:53;;;;;;;8.32;7.05;;;;;;;20.21;75.27;101247.22;4831897;29;102325;-59
2021/06/19 06:29:20;;;;;;;11.45;6.70;;;;;;;20.22;75.16;101254.38;4844165;29;102584;-59
2021/06/19 06:31:47;;;;;;;12.65;6.65;;;;;;;20.25;74.99;101256.50;4845364;29;104073;-60
2021/06/19 06:34:17;;;;;;;7.40;6.22;;;;;;;20.32;74.77;101244.97;4855786;28;102679;-60
2021/06/19 06:36:45;;;;;;;6.75;5.95;;;;;;;20.34;74.73;101254.56;4837434;29;102750;-60
2021/06/19 06:39:13;;;;;;;9.63;6.18;;;;;;;20.34;74.71;101249.03;4837937;29;102654;-60
2021/06/19 06:41:45;;;;;;;8.07;6.00;;;;;;;20.36;74.53;101255.03;4840467;29;103902;-60
2021/06/19 06:44:17;;;;;;;12.20;5.82;;;;;;;20.40;74.58;101252.44;4861819;28;102746;-60
2021/06/19 06:46:47;;;;;;;6.22;5.63;;;;;;;20.42;74.35;101243.84;4845756;29;102896;-60
2021/06/19 06:49:15;;;;;;;8.95;5.30;;;;;;;20.39;73.40;101239.75;4858584;29;102355;-59
2021/06/19 06:51:42;;;;;;;7.00;5.43;;;;;;;20.40;73.40;101241.38;4843440;29;104010;-59
2021/06/19 06:54:12;;;;;;;6.65;4.53;;;;;;;20.45;73.58;101240.41;4848451;29;102600;-60
2021/06/19 06:56:44;;;;;;;10.40;4.90;;;;;;;20.43;73.20;101234.41;4840261;29;102662;-59
2021/06/19 06:59:14;;;;;;;11.48;4.88;;;;;;;20.45;73.14;101237.63;4852916;29;102770;-59
2021/06/19 07:01:43;;;;;;;9.60;4.57;;;;;;;20.46;73.45;101239.28;4832430;29;103956;-60
2021/06/19 07:04:11;;;;;;;10.93;4.43;;;;;;;20.46;72.97;101228.22;4850966;29;102789;-59
2021/06/19 07:06:37;;;;;;;6.43;4.88;;;;;;;20.46;72.72;101223.50;4842254;29;102530;-59
2021/06/19 07:09:04;;;;;;;6.03;4.10;;;;;;;20.46;72.66;101222.69;4845185;29;102879;-59
2021/06/19 07:11:31;;;;;;;4.03;3.70;;;;;;;20.48;72.38;101231.47;4841903;29;104034;-59
2021/06/19 07:13:58;;;;;;;21.42;5.90;;;;;;;20.50;72.02;101229.22;4836431;29;102248;-58
2021/06/19 07:16:25;;;;;;;11.73;4.88;;;;;;;20.54;71.55;101213.59;4855467;28;102562;-59
2021/06/19 07:18:56;;;;;;;6.93;3.88;;;;;;;20.54;71.79;101217.19;4841082;29;102507;-59
2021/06/19 07:21:23;;;;;;;4.78;3.75;;;;;;;20.51;71.32;101217.00;4836751;29;103926;-60
2021/06/19 07:23:51;;;;;;;24.23;5.30;;;;;;;20.51;71.19;101217.81;4844751;29;102616;-59
2021/06/19 07:26:22;;;;;;;11.77;4.22;;;;;;;20.52;71.07;101210.34;4849377;29;102367;-58
2021/06/19 07:28:49;;;;;;;13.00;4.18;;;;;;;20.52;71.19;101205.66;4845560;29;101913;-59
2021/06/19 07:31:20;;;;;;;15.13;3.95;;;;;;;20.55;71.11;101209.69;4843459;29;103800;-58
2021/06/19 07:33:48;;;;;;;10.45;4.38;;;;;;;20.56;71.63;101211.34;4838921;29;102108;-58
2021/06/19 07:36:15;;;;;;;13.60;4.03;;;;;;;20.63;71.32;101206.13;4837116;29;102675;-61
2021/06/19 07:38:43;;;;;;;9.27;3.10;;;;;;;20.64;71.37;101207.75;4858772;28;102729;-58
2021/06/19 07:41:12;;;;;;;23.73;5.05;;;;;;;20.66;69.46;101210.16;4843060;29;104081;-59
2021/06/19 07:43:43;;;;;;;21.33;4.68;;;;;;;20.61;70.43;101203.66;4841483;29;102279;-59
2021/06/19 07:46:11;;;;;;;11.77;4.13;;;;;;;20.67;69.89;101212.63;4840688;29;102350;-59
2021/06/19 07:48:40;;;;;;;11.27;3.43;;;;;;;20.67;70.09;101217.34;4844228;29;102560;-58
2021/06/19 07:51:07;;;;;;;8.77;3.30;;;;;;;20.67;69.41;101220.91;4861752;28;103999;-60
2021/06/19 07:53:35;;;;;;;4.22;2.95;;;;;;;20.66;67.71;101212.94;4849873;28;102815;-59
2021/06/19 07:56:02;;;;;;;14.57;3.33;;;;;;;20.70;68.65;101206.44;4848272;29;103753;-59
2021/06/19 07:58:31;;;;;;;;;;;;;;;20.67;69.03;101207.09;4846271;29;102244;-59
2021/06/19 08:00:58;;;;;;;5.57;3.45;;;;;;;20.68;68.71;101213.44;4839054;29;103922;-59
2021/06/19 08:03:26;;;;;;;4.95;3.00;;;;;;;20.69;68.90;101215.84;4840829;29;102838;-59
2021/06/19 08:05:57;;;;;;;6.80;2.63;;;;;;;20.79;68.18;101226.59;4840130;29;102574;-59
2021/06/19 08:08:28;;;;;;;7.38;2.75;;;;;;;20.79;68.67;101212.75;4845161;29;102336;-59
2021/06/19 08:10:55;;;;;;;7.05;3.10;;;;;;;20.78;68.60;101216.66;4853620;28;102087;-59
2021/06/19 08:13:22;;;;;;;6.05;2.85;;;;;;;20.81;68.76;101206.91;4849469;29;102487;-59
2021/06/19 08:15:50;;;;;;;8.05;3.42;;;;;;;20.80;68.39;101222.66;4844345;29;102370;-59
2021/06/19 08:18:17;;;;;;;12.40;3.15;;;;;;;20.77;68.86;101228.03;4852669;28;102450;-60
2021/06/19 08:20:49;;;;;;;11.38;3.10;;;;;;;20.75;68.39;101233.91;4835423;29;103918;-60
2021/06/19 08:23:23;;;;;;;7.57;3.03;;;;;;;20.76;68.26;101227.22;4849918;29;102703;-60
2021/06/19 08:25:52;;;;;;;10.13;2.75;;;;;;;20.79;68.25;101212.75;4858472;28;102418;-59
2021/06/19 08:28:19;;;;;;;6.88;2.80;;;;;;;20.78;68.68;101221.38;4843763;29;102551;-61
2021/06/19 08:30:46;;;;;;;8.98;2.90;;;;;;;20.81;68.30;101229.03;4840993;29;104037;-60
2021/06/19 08:33:14;;;;;;;3.72;3.20;;;;;;;20.75;68.23;101217.31;4835032;29;102075;-60
2021/06/19 08:35:40;;;;;;;9.48;2.75;;;;;;;20.82;67.70;101228.69;4842444;29;102694;-59
2021/06/19 08:38:08;;;;;;;4.65;2.70;;;;;;;20.84;67.95;101229.19;4833853;29;102479;-61
2021/06/19 08:40:38;;;;;;;6.30;3.15;;;;;;;20.84;68.00;101229.19;4843086;29;103212;-58
2021/06/19 08:43:04;;;;;;;8.52;3.00;;;;;;;20.83;67.78;101222.00;4842775;29;102745;-60
2021/06/19 08:45:33;;;;;;;5.18;2.97;;;;;;;20.85;67.98;101214.22;4842669;29;102411;-59
2021/06/19 08:48:01;;;;;;;3.35;2.72;;;;;;;20.93;67.33;101209.00;4843090;29;102682;-59
2021/06/19 08:50:30;;;;;;;7.97;4.05;;;;;;;20.87;67.45;101211.91;4841665;29;104266;-60
2021/06/19 08:52:59;;;;;;;4.53;3.08;;;;;;;20.84;67.62;101217.28;4841198;29;103037;-59
2021/06/19 08:55:27;;;;;;;6.90;3.28;;;;;;;20.83;67.79;101215.66;4830352;29;102380;-59
2021/06/19 08:57:56;;;;;;;4.30;2.58;;;;;;;20.82;68.04;101214.88;4851151;28;102854;-60
2021/06/19 09:00:26;;;;;;;4.10;3.10;;;;;;;20.82;68.33;101208.53;4844944;29;102982;-59
2021/06/19 09:02:53;;;;;;;4.75;3.28;;;;;;;20.83;68.13;101194.34;4833499;29;102429;-59
2021/06/19 09:05:28;;;;;;;4.95;3.08;;;;;;;20.83;67.94;101197.13;4840428;29;102771;-59
2021/06/19 09:07:56;;;;;;;6.43;2.60;;;;;;;20.92;66.35;101185.25;4837772;29;102734;-59
2021/06/19 09:10:31;;;;;;;3.88;2.67;;;;;;;20.88;67.09;101190.63;4839792;29;102133;-59
2021/06/19 09:13:11;;;;;;;4.13;2.80;;;;;;;20.92;67.02;101186.03;4834608;29;102530;-59
2021/06/19 09:15:48;;;;;;;11.73;3.03;;;;;;;20.88;66.71;101183.13;4838017;29;102904;-60
2021/06/19 09:18:20;;;;;;;20.80;3.38;;;;;;;20.92;66.45;101185.25;4853531;28;102541;-59
2021/06/19 09:21:00;;;;;;;9.80;2.70;;;;;;;20.96;65.90;101191.72;4842970;29;103749;-60
2021/06/19 09:23:32;;;;;;;3.10;2.03;;;;;;;20.93;65.49;101184.09;4840854;29;102458;-59
2021/06/19 09:26:14;;;;;;;3.85;2.40;;;;;;;21.04;64.58;101177.03;4839993;29;102386;-61
2021/06/19 09:28:57;;;;;;;4.10;2.15;;;;;;;21.02;64.65;101185.66;4844539;29;102354;-60
2021/06/19 09:31:38;;;;;;;5.70;2.10;;;;;;;21.09;64.38;101172.13;4857460;28;104029;-59
2021/06/19 09:34:08;;;;;;;5.88;2.15;;;;;;;21.01;64.73;101183.25;4841076;29;101605;-61
2021/06/19 09:36:37;;;;;;;6.80;1.73;;;;;;;20.99;64.29;101179.97;4843218;29;101408;-60
2021/06/19 09:39:06;;;;;;;9.80;2.10;;;;;;;20.98;63.79;101181.94;4839870;29;102242;-60
2021/06/19 09:41:34;;;;;;;6.13;1.98;;;;;;;20.97;63.62;101183.09;4840123;29;104136;-60
2021/06/19 09:44:08;;;;;;;5.15;1.80;;;;;;;21.04;62.86;101171.50;4833217;29;102131;-60
2021/06/19 09:46:35;;;;;;;3.97;1.63;;;;;;;21.01;63.64;101167.44;4845213;29;102904;-60
2021/06/19 09:49:11;;;;;;;2.83;1.98;;;;;;;21.00;63.50;101171.38;4847806;29;102645;-61
2021/06/19 09:51:50;;;;;;;4.28;1.50;;;;;;;21.09;62.39;101163.00;4838232;29;102865;-64
2021/06/19 09:54:19;;;;;;;2.92;1.80;;;;;;;21.05;63.19;101173.94;4843018;29;103124;-60
2021/06/19 09:56:51;;;;;;;1.97;1.77;;;;;;;21.01;62.87;101172.16;4844864;29;102290;-60
2021/06/19 09:59:30;;;;;;;8.02;1.75;;;;;;;21.08;62.31;101166.94;4843767;29;102534;-61
2021/06/19 10:01:58;;;;;;;3.35;1.90;;;;;;;21.10;62.70;101182.06;4831625;28;104025;-64
2021/06/19 10:04:28;;;;;;;2.60;1.50;;;;;;;21.05;62.49;101167.59;4853425;28;102385;-60
2021/06/19 10:06:59;;;;;;;1.95;1.67;;;;;;;21.07;61.92;101170.84;4835689;29;102440;-60
2021/06/19 10:09:31;;;;;;;3.20;1.58;;;;;;;21.05;61.75;101156.53;4844780;29;102535;-58
2021/06/19 10:12:04;;;;;;;5.07;1.45;;;;;;;21.07;61.89;101149.53;4844813;29;104118;-58
2021/06/19 10:14:39;;;;;;;5.55;2.88;;;;;;;21.08;62.55;101156.69;4845953;29;102510;-65
2021/06/19 10:17:06;;;;;;;5.43;1.58;;;;;;;21.12;61.80;101146.56;4841755;29;102057;-57
2021/06/19 10:19:36;;;;;;;34.38;4.40;;;;;;;21.18;61.60;101155.50;4840274;29;102760;-59
2021/06/19 10:22:04;;;;;;;16.67;2.88;;;;;;;21.15;62.56;101155.34;4838479;29;103889;-58
2021/06/19 10:24:31;;;;;;;;;;;;;;;21.15;62.93;101145.09;4845952;29;102358;-60
2021/06/19 10:26:58;;;;;;;16.70;2.70;;;;;;;21.10;63.34;101148.06;4839501;29;102272;-64
2021/06/19 10:29:30;;;;;;;32.40;4.55;;;;;;;21.08;63.71;101139.25;4840840;29;102427;-61
2021/06/19 10:31:58;;;;;;;13.85;3.17;;;;;;;21.07;64.20;101144.00;4839005;29;104473;-61
2021/06/19 10:34:28;;;;;;;23.10;3.20;;;;;;;21.06;64.04;101136.84;4840678;29;102973;-61
2021/06/19 10:36:56;;;;;;;10.60;2.60;;;;;;;21.05;64.44;101134.38;4839490;29;102409;-60
2021/06/19 10:39:43;;;;;;;8.45;2.72;;;;;;;21.04;64.66;101133.59;4838752;29;102200;-60
2021/06/19 10:42:25;;;;;;;6.57;2.65;;;;;;;21.03;64.54;101131.97;4831590;29;104736;-60
2021/06/19 10:44:55;;;;;;;9.10;2.35;;;;;;;21.03;64.66;101133.94;4838552;29;102411;-61
2021/06/19 10:47:25;;;;;;;12.30;2.85;;;;;;;21.02;64.87;101135.03;4845718;29;102466;-61
2021/06/19 10:49:52;;;;;;;8.80;2.40;;;;;;;21.01;65.00;101133.44;4847437;29;102611;-61
2021/06/19 10:52:31;;;;;;;7.60;2.50;;;;;;;21.00;65.12;101118.78;4833312;29;103942;-60
2021/06/19 10:55:25;;;;;;;3.70;2.40;;;;;;;20.99;65.43;101119.09;4838051;29;102648;-60
2021/06/19 10:57:57;;;;;;;6.53;2.40;;;;;;;20.98;65.25;101112.75;4841726;29;102436;-60
2021/06/19 11:00:36;;;;;;;6.15;2.70;;;;;;;20.99;65.58;101105.28;4838558;29;102293;-60
2021/06/19 11:03:09;;;;;;;6.25;2.30;;;;;;;20.97;65.60;101113.09;4841105;29;104466;-60
2021/06/19 11:05:56;;;;;;;8.60;2.80;;;;;;;20.96;65.63;101114.25;4840779;29;102451;-61
2021/06/19 11:08:23;;;;;;;7.23;2.97;;;;;;;20.96;65.73;101109.53;4839528;29;102756;-60
2021/06/19 11:11:01;;;;;;;5.43;3.08;;;;;;;20.96;65.66;101111.50;4848451;28;103143;-61
2021/06/19 11:13:47;;;;;;;5.57;2.97;;;;;;;20.95;65.99;101113.44;4853529;29;104061;-61
2021/06/19 11:16:45;;;;;;;8.60;2.67;;;;;;;20.93;66.46;101109.38;4842730;29;102007;-61
2021/06/19 11:19:32;;;;;;;6.18;2.67;;;;;;;20.91;66.30;101103.38;4827931;29;102356;-61
2021/06/19 11:22:24;;;;;;;8.85;2.60;;;;;;;20.87;66.49;101098.50;4842376;29;102660;-61
2021/06/19 11:25:14;;;;;;;3.33;2.90;;;;;;;20.84;66.51;101096.41;4841137;29;104925;-61
2021/06/19 11:27:59;;;;;;;3.50;2.70;;;;;;;20.85;66.43;101095.25;4836359;29;102501;-61
2021/06/19 11:30:51;;;;;;;5.05;2.72;;;;;;;20.86;66.70;101088.56;4837021;29;102573;-60
2021/06/19 11:33:42;;;;;;;4.38;2.40;;;;;;;20.84;66.64;101085.34;4840467;29;102351;-61